createdAt,value
2022-07-29T00:00:42.114Z,97617.81
2022-07-29T00:03:09.949Z,97616.72
2022-07-29T00:05:37.651Z,97614.00
2022-07-29T00:08:09.413Z,97616.19
2022-07-29T00:10:40.644Z,97609.06
2022-07-29T00:13:08.259Z,97609.09
2022-07-29T00:15:35.886Z,97603.06
2022-07-29T00:18:05.135Z,97591.41
2022-07-29T00:20:35.868Z,97596.31
2022-07-29T00:23:05.154Z,97590.25
2022-07-29T00:25:32.877Z,97583.13
2022-07-29T00:28:03.601Z,97580.97
2022-07-29T00:30:31.389Z,97579.91
2022-07-29T00:32:59.076Z,97575.81
2022-07-29T00:35:45.344Z,97580.44
2022-07-29T00:38:14.346Z,97576.38
2022-07-29T00:40:43.318Z,97571.16
2022-07-29T00:43:12.684Z,97579.66
2022-07-29T00:45:40.555Z,97579.88
2022-07-29T00:48:09.743Z,97581.78
2022-07-29T00:50:39.617Z,97594.09
2022-07-29T00:53:09.436Z,97590.00
2022-07-29T00:55:40.478Z,97598.22
2022-07-29T00:58:08.559Z,97599.59
2022-07-29T01:00:36.480Z,97599.84
2022-07-29T01:03:04.610Z,97598.19
2022-07-29T01:05:50.008Z,97600.41
2022-07-29T01:08:22.931Z,97598.75
2022-07-29T01:10:51.537Z,97587.81
2022-07-29T01:13:26.185Z,97596.84
2022-07-29T01:16:14.303Z,97600.66
2022-07-29T01:18:49.187Z,97597.69
2022-07-29T01:21:37.950Z,97594.63
2022-07-29T01:24:21.584Z,97587.53
2022-07-29T01:26:51.195Z,97587.81
2022-07-29T01:29:26.622Z,97584.25
2022-07-29T01:32:07.835Z,97587.28
2022-07-29T01:34:50.702Z,97592.50
2022-07-29T01:37:24.542Z,97597.94
2022-07-29T01:39:54.763Z,97592.19
2022-07-29T01:42:29.614Z,97590.31
2022-07-29T01:45:03.379Z,97586.75
2022-07-29T01:47:36.853Z,97573.63
2022-07-29T01:50:10.636Z,97567.06
2022-07-29T01:52:45.765Z,97558.06
2022-07-29T01:55:16.712Z,97562.19
2022-07-29T01:57:47.616Z,97570.09
2022-07-29T02:00:23.574Z,97565.69
2022-07-29T02:02:52.772Z,97559.97
2022-07-29T02:05:24.210Z,97566.53
2022-07-29T02:07:54.909Z,97575.25
2022-07-29T02:10:26.249Z,97568.13
2022-07-29T02:12:57.132Z,97569.25
2022-07-29T02:15:27.659Z,97571.75
2022-07-29T02:17:58.526Z,97573.06
2022-07-29T02:20:28.329Z,97567.91
2022-07-29T02:22:57.577Z,97558.59
2022-07-29T02:25:36.763Z,97555.06
2022-07-29T02:28:07.260Z,97559.41
2022-07-29T02:33:34.851Z,97563.50
2022-07-29T02:36:07.292Z,97561.59
2022-07-29T02:38:52.923Z,97569.84
2022-07-29T02:41:22.803Z,97555.16
2022-07-29T02:43:55.983Z,97559.88
2022-07-29T02:46:33.453Z,97560.72
2022-07-29T02:49:06.281Z,97565.13
2022-07-29T02:51:44.686Z,97563.47
2022-07-29T02:54:19.283Z,97562.66
2022-07-29T02:56:48.605Z,97562.94
2022-07-29T02:59:19.411Z,97561.84
2022-07-29T03:01:49.002Z,97567.84
2022-07-29T03:04:19.610Z,97570.31
2022-07-29T03:06:48.994Z,97573.84
2022-07-29T03:09:16.951Z,97566.47
2022-07-29T03:11:49.675Z,97573.28
2022-07-29T03:14:21.229Z,97567.28
2022-07-29T03:16:51.850Z,97568.34
2022-07-29T03:19:19.945Z,97566.72
2022-07-29T03:21:47.897Z,97569.16
2022-07-29T03:24:33.577Z,97574.34
2022-07-29T03:27:01.831Z,97562.59
2022-07-29T03:29:33.821Z,97563.16
2022-07-29T03:32:08.310Z,97561.25
2022-07-29T03:34:37.441Z,97557.69
2022-07-29T03:37:05.286Z,97562.03
2022-07-29T03:39:37.112Z,97561.72
2022-07-29T03:42:07.265Z,97561.44
2022-07-29T03:44:36.548Z,97554.03
2022-07-29T03:47:08.943Z,97556.22
2022-07-29T03:49:39.547Z,97565.78
2022-07-29T03:52:07.829Z,97567.69
2022-07-29T03:54:35.848Z,97575.31
2022-07-29T03:57:05.535Z,97573.97
2022-07-29T03:59:42.018Z,97581.84
2022-07-29T04:02:14.786Z,97579.69
2022-07-29T04:04:44.502Z,97586.50
2022-07-29T04:07:13.969Z,97587.28
2022-07-29T04:09:41.776Z,97583.75
2022-07-29T04:12:10.254Z,97590.00
2022-07-29T04:14:38.321Z,97591.88
2022-07-29T04:17:06.879Z,97591.88
2022-07-29T04:19:36.330Z,97593.28
2022-07-29T04:22:04.049Z,97594.06
2022-07-29T04:24:31.653Z,97593.81
2022-07-29T04:26:59.480Z,97595.44
2022-07-29T04:29:27.042Z,97595.97
2022-07-29T04:31:54.817Z,97602.50
2022-07-29T04:34:22.398Z,97597.03
2022-07-29T04:36:51.451Z,97589.44
2022-07-29T04:39:23.000Z,97593.78
2022-07-29T04:41:54.979Z,97604.16
2022-07-29T04:44:28.386Z,97601.44
2022-07-29T04:46:57.363Z,97612.03
2022-07-29T04:49:25.413Z,97608.25
2022-07-29T04:51:54.434Z,97603.34
2022-07-29T04:54:22.121Z,97605.81
2022-07-29T04:56:49.824Z,97608.22
2022-07-29T04:59:17.451Z,97606.34
2022-07-29T05:01:45.200Z,97606.09
2022-07-29T05:04:13.179Z,97606.91
2022-07-29T05:06:41.142Z,97609.91
2022-07-29T05:09:12.384Z,97609.56
2022-07-29T05:11:40.122Z,97609.72
2022-07-29T05:14:07.869Z,97615.63
2022-07-29T05:16:35.554Z,97617.81
2022-07-29T05:19:03.171Z,97622.50
2022-07-29T05:21:33.437Z,97617.72
2022-07-29T05:24:01.309Z,97617.59
2022-07-29T05:26:32.922Z,97616.88
2022-07-29T05:29:00.461Z,97615.63
2022-07-29T05:31:33.632Z,97612.63
2022-07-29T05:34:01.472Z,97602.03
2022-07-29T05:36:29.487Z,97600.13
2022-07-29T05:39:00.415Z,97602.56
2022-07-29T05:41:28.196Z,97604.25
2022-07-29T05:43:57.132Z,97610.22
2022-07-29T05:46:24.932Z,97606.84
2022-07-29T05:48:53.918Z,97601.09
2022-07-29T05:51:24.204Z,97608.25
2022-07-29T05:53:52.639Z,97597.88
2022-07-29T05:56:21.109Z,97603.38
2022-07-29T05:58:48.732Z,97605.03
2022-07-29T06:01:18.589Z,97605.59
2022-07-29T06:03:47.245Z,97601.19
2022-07-29T06:06:15.759Z,97607.16
2022-07-29T06:08:52.259Z,97602.25
2022-07-29T06:11:20.999Z,97600.34
2022-07-29T06:13:49.249Z,97605.78
2022-07-29T06:16:28.898Z,97603.41
2022-07-29T06:18:58.442Z,97606.13
2022-07-29T06:21:26.908Z,97608.91
2022-07-29T06:23:58.323Z,97603.97
2022-07-29T06:26:30.605Z,97613.81
2022-07-29T06:29:04.388Z,97614.59
2022-07-29T06:31:33.404Z,97611.88
2022-07-29T06:37:30.401Z,97623.34
2022-07-29T06:40:22.177Z,97620.34
2022-07-29T06:42:56.748Z,97619.00
2022-07-29T06:45:32.666Z,97626.09
2022-07-29T06:48:04.981Z,97624.66
2022-07-29T06:50:32.799Z,97625.25
2022-07-29T06:53:00.386Z,97624.16
2022-07-29T06:55:30.396Z,97625.53
2022-07-29T06:57:57.957Z,97626.88
2022-07-29T07:00:25.710Z,97621.19
2022-07-29T07:02:53.490Z,97620.03
2022-07-29T07:05:22.854Z,97614.53
2022-07-29T07:07:54.022Z,97613.81
2022-07-29T07:10:21.616Z,97618.16
2022-07-29T07:12:51.987Z,97612.28
2022-07-29T07:15:22.807Z,97612.53
2022-07-29T07:18:10.009Z,97615.28
2022-07-29T07:20:42.306Z,97613.03
2022-07-29T07:23:09.932Z,97610.13
2022-07-29T07:25:37.613Z,97608.88
2022-07-29T07:28:08.818Z,97611.81
2022-07-29T07:30:38.382Z,97612.34
2022-07-29T07:33:06.116Z,97607.34
2022-07-29T07:35:34.402Z,97603.03
2022-07-29T07:38:03.338Z,97607.09
2022-07-29T07:40:38.001Z,97606.38
2022-07-29T07:43:06.946Z,97598.28
2022-07-29T07:45:34.931Z,97606.09
2022-07-29T07:48:02.623Z,97601.97
2022-07-29T07:50:30.332Z,97601.22
2022-07-29T07:52:59.444Z,97598.53
2022-07-29T07:55:38.239Z,97603.38
2022-07-29T07:58:20.134Z,97599.19
2022-07-29T08:00:48.094Z,97597.91
2022-07-29T08:03:17.002Z,97599.22
2022-07-29T08:05:46.554Z,97599.78
2022-07-29T08:08:14.667Z,97606.91
2022-07-29T08:11:09.999Z,97603.41
2022-07-29T08:13:38.964Z,97606.75
2022-07-29T08:16:14.209Z,97600.06
2022-07-29T08:18:51.996Z,97601.44
2022-07-29T08:21:20.554Z,97599.06
2022-07-29T08:24:00.700Z,97603.75
2022-07-29T08:26:32.049Z,97600.72
2022-07-29T08:29:01.975Z,97595.78
2022-07-29T08:31:36.229Z,97598.13
2022-07-29T08:34:04.650Z,97590.28
2022-07-29T08:36:33.255Z,97582.63
2022-07-29T08:39:01.795Z,97583.22
2022-07-29T08:41:31.161Z,97588.94
2022-07-29T08:43:59.237Z,97582.03
2022-07-29T08:46:27.261Z,97588.00
2022-07-29T08:48:55.389Z,97585.00
2022-07-29T08:51:24.129Z,97585.91
2022-07-29T08:53:52.744Z,97583.22
2022-07-29T08:56:21.396Z,97582.03
2022-07-29T08:58:52.249Z,97579.47
2022-07-29T09:01:35.212Z,97579.16
2022-07-29T09:04:06.507Z,97581.06
2022-07-29T09:06:38.798Z,97577.34
2022-07-29T09:09:10.072Z,97576.69
2022-07-29T09:11:37.858Z,97578.38
2022-07-29T09:14:15.177Z,97576.63
2022-07-29T09:17:12.696Z,97578.97
2022-07-29T09:19:45.464Z,97581.63
2022-07-29T09:22:38.819Z,97568.50
2022-07-29T09:25:11.683Z,97577.44
2022-07-29T09:27:39.476Z,97570.97
2022-07-29T09:30:11.541Z,97568.44
2022-07-29T09:32:58.260Z,97574.31
2022-07-29T09:35:28.453Z,97567.94
2022-07-29T09:37:57.082Z,97576.13
2022-07-29T09:40:28.526Z,97571.66
2022-07-29T09:43:06.320Z,97568.50
2022-07-29T09:45:35.919Z,97561.13
2022-07-29T09:48:16.148Z,97564.28
2022-07-29T09:50:45.849Z,97571.81
2022-07-29T09:53:13.540Z,97562.03
2022-07-29T09:55:50.002Z,97573.50
2022-07-29T09:58:22.671Z,97560.91
2022-07-29T10:00:53.163Z,97567.81
2022-07-29T10:03:21.545Z,97568.66
2022-07-29T10:06:13.423Z,97570.28
2022-07-29T10:08:43.332Z,97564.47
2022-07-29T10:11:12.975Z,97559.69
2022-07-29T10:13:40.904Z,97559.13
2022-07-29T10:16:10.635Z,97566.44
2022-07-29T10:18:40.823Z,97559.25
2022-07-29T10:21:09.453Z,97559.50
2022-07-29T10:23:46.776Z,97555.03
2022-07-29T10:26:15.635Z,97555.25
2022-07-29T10:28:43.257Z,97547.59
2022-07-29T10:31:21.591Z,97543.72
2022-07-29T10:34:01.561Z,97545.25
2022-07-29T10:36:40.366Z,97550.25
2022-07-29T10:39:41.584Z,97550.63
2022-07-29T10:42:29.585Z,97537.06
2022-07-29T10:45:02.783Z,97538.31
2022-07-29T10:47:35.732Z,97533.63
2022-07-29T10:50:05.767Z,97541.56
2022-07-29T10:53:04.905Z,97541.97
2022-07-29T10:55:47.769Z,97537.00
2022-07-29T10:58:25.043Z,97521.72
2022-07-29T11:00:54.504Z,97522.78
2022-07-29T11:03:50.893Z,97521.31
2022-07-29T11:06:30.866Z,97516.66
2022-07-29T11:09:20.097Z,97515.59
2022-07-29T11:11:51.537Z,97513.88
2022-07-29T11:14:40.643Z,97513.19
2022-07-29T11:17:09.082Z,97515.72
2022-07-29T11:19:44.760Z,97517.50
2022-07-29T11:25:42.990Z,97516.31
2022-07-29T11:28:22.740Z,97520.22
2022-07-29T11:30:53.487Z,97516.81
2022-07-29T11:33:54.125Z,97515.25
2022-07-29T11:36:27.987Z,97518.03
2022-07-29T11:39:36.261Z,97510.94
2022-07-29T11:42:41.802Z,97515.88
2022-07-29T11:45:42.976Z,97507.81
2022-07-29T11:54:05.183Z,97493.09
2022-07-29T11:56:44.888Z,97485.28
2022-07-29T11:59:19.047Z,97489.19
2022-07-29T12:02:36.710Z,97485.38
2022-07-29T12:04:53.325Z,97481.44
2022-07-29T12:07:03.522Z,97498.53
2022-07-29T12:07:34.801Z,97478.00
2022-07-29T12:10:05.087Z,97471.69
2022-07-29T12:12:41.423Z,97470.22
2022-07-29T12:15:21.510Z,97466.47
2022-07-29T12:17:51.759Z,97466.91
2022-07-29T12:20:26.538Z,97473.63
2022-07-29T12:22:56.138Z,97456.03
2022-07-29T12:25:33.988Z,97463.34
2022-07-29T12:28:14.188Z,97456.44
2022-07-29T12:30:45.756Z,97458.13
2022-07-29T12:33:21.369Z,97462.84
2022-07-29T12:36:05.928Z,97467.38
2022-07-29T12:38:38.925Z,97468.63
2022-07-29T12:41:06.950Z,97464.09
2022-07-29T12:43:34.707Z,97460.66
2022-07-29T12:46:14.685Z,97457.09
2022-07-29T12:48:53.626Z,97458.47
2022-07-29T12:51:30.590Z,97458.00
2022-07-29T12:54:14.352Z,97451.72
2022-07-29T12:56:59.887Z,97440.97
2022-07-29T12:59:27.546Z,97443.63
2022-07-29T13:01:55.821Z,97434.78
2022-07-29T13:04:29.109Z,97438.63
2022-07-29T13:07:21.643Z,97434.53
2022-07-29T13:10:15.518Z,97432.91
2022-07-29T13:13:05.175Z,97430.84
2022-07-29T13:15:39.096Z,97429.69
2022-07-29T13:18:19.223Z,97434.13
2022-07-29T13:20:50.756Z,97441.22
2022-07-29T13:23:18.830Z,97442.34
2022-07-29T13:28:54.508Z,97442.41
2022-07-29T13:31:23.072Z,97446.03
2022-07-29T13:33:50.652Z,97449.84
2022-07-29T13:36:22.103Z,97452.25
2022-07-29T13:38:54.784Z,97452.59
2022-07-29T13:41:22.688Z,97449.88
2022-07-29T13:43:56.275Z,97453.06
2022-07-29T13:46:24.467Z,97450.44
2022-07-29T13:48:57.440Z,97451.56
2022-07-29T13:51:26.509Z,97449.53
2022-07-29T13:53:54.082Z,97447.00
2022-07-29T13:56:53.146Z,97435.28
2022-07-29T14:00:06.368Z,97438.53
2022-07-29T14:02:35.783Z,97432.22
2022-07-29T14:05:12.727Z,97427.34
2022-07-29T14:07:46.202Z,97434.53
2022-07-29T14:10:59.765Z,97421.91
2022-07-29T14:13:27.611Z,97430.38
2022-07-29T14:15:55.532Z,97433.22
2022-07-29T14:18:25.998Z,97431.97
2022-07-29T14:20:53.809Z,97430.47
2022-07-29T14:23:24.224Z,97441.66
2022-07-29T14:25:54.654Z,97434.41
2022-07-29T14:28:22.587Z,97454.63
2022-07-29T14:30:53.315Z,97454.72
2022-07-29T14:33:21.091Z,97458.09
2022-07-29T14:35:48.684Z,97466.28
2022-07-29T14:38:16.491Z,97475.78
2022-07-29T14:40:46.039Z,97485.75
2022-07-29T14:43:18.751Z,97493.47
2022-07-29T14:45:55.067Z,97504.28
2022-07-29T14:48:29.066Z,97500.97
2022-07-29T14:50:58.375Z,97506.38
2022-07-29T14:53:28.769Z,97497.13
2022-07-29T14:56:06.202Z,97500.44
2022-07-29T14:58:49.142Z,97514.16
2022-07-29T15:01:19.801Z,97520.03
2022-07-29T15:03:47.464Z,97518.97
2022-07-29T15:06:15.240Z,97525.44
2022-07-29T15:08:42.895Z,97539.91
2022-07-29T15:11:11.828Z,97552.63
2022-07-29T15:13:51.885Z,97559.25
2022-07-29T15:16:22.542Z,97569.84
2022-07-29T15:18:50.386Z,97569.75
2022-07-29T15:21:18.277Z,97572.50
2022-07-29T15:23:45.971Z,97590.81
2022-07-29T15:26:14.958Z,97583.31
2022-07-29T15:28:45.047Z,97578.31
2022-07-29T15:31:12.747Z,97585.28
2022-07-29T15:33:41.940Z,97587.19
2022-07-29T15:36:11.313Z,97587.16
2022-07-29T15:38:41.600Z,97600.19
2022-07-29T15:41:09.734Z,97611.03
2022-07-29T15:43:38.696Z,97611.13
2022-07-29T15:46:24.266Z,97626.84
2022-07-29T15:48:51.872Z,97625.47
2022-07-29T15:51:19.887Z,97626.31
2022-07-29T15:53:53.573Z,97626.41
2022-07-29T15:56:21.923Z,97634.50
2022-07-29T15:58:50.984Z,97636.72
2022-07-29T16:01:18.925Z,97640.53
2022-07-29T16:03:46.658Z,97645.06
2022-07-29T16:06:15.005Z,97651.13
2022-07-29T16:08:42.918Z,97640.25
2022-07-29T16:11:10.488Z,97643.81
2022-07-29T16:13:38.205Z,97648.44
2022-07-29T16:16:07.540Z,97654.50
2022-07-29T16:18:35.145Z,97645.47
2022-07-29T16:21:02.791Z,97652.03
2022-07-29T16:23:30.609Z,97649.25
2022-07-29T16:28:31.490Z,97639.44
2022-07-29T16:30:59.196Z,97639.78
2022-07-29T16:33:28.290Z,97636.97
2022-07-29T16:36:15.998Z,97637.13
2022-07-29T16:38:46.985Z,97642.56
2022-07-29T16:41:15.780Z,97656.66
2022-07-29T16:43:43.331Z,97656.13
2022-07-29T16:46:15.684Z,97657.41
2022-07-29T16:48:49.033Z,97638.34
2022-07-29T16:51:16.757Z,97626.88
2022-07-29T16:53:44.903Z,97629.88
2022-07-29T16:56:13.170Z,97624.56
2022-07-29T16:58:43.886Z,97631.50
2022-07-29T17:01:12.242Z,97633.72
2022-07-29T17:04:00.849Z,97625.84
2022-07-29T17:06:30.062Z,97631.16
2022-07-29T17:08:57.745Z,97638.56
2022-07-29T17:11:53.394Z,97636.97
2022-07-29T17:14:13.043Z,97641.94
2022-07-29T17:16:40.727Z,97647.53
2022-07-29T17:19:08.466Z,97656.34
2022-07-29T17:21:37.641Z,97664.31
2022-07-29T17:24:16.452Z,97669.16
2022-07-29T17:26:44.655Z,97684.97
2022-07-29T17:29:12.568Z,97683.44
2022-07-29T17:31:40.292Z,97685.75
2022-07-29T17:34:08.731Z,97679.50
2022-07-29T17:36:37.705Z,97670.63
2022-07-29T17:39:07.910Z,97667.03
2022-07-29T17:41:35.605Z,97670.94
2022-07-29T17:44:03.179Z,97676.81
2022-07-29T17:46:31.000Z,97675.81
2022-07-29T17:48:58.780Z,97673.94
2022-07-29T17:51:27.729Z,97671.81
2022-07-29T17:53:59.411Z,97665.88
2022-07-29T17:56:27.173Z,97659.69
2022-07-29T17:58:54.881Z,97664.31
2022-07-29T18:01:24.549Z,97670.88
2022-07-29T18:03:52.182Z,97673.09
2022-07-29T18:06:19.981Z,97677.47
2022-07-29T18:08:48.321Z,97674.19
2022-07-29T18:11:17.263Z,97676.38
2022-07-29T18:13:45.013Z,97675.59
2022-07-29T18:16:12.611Z,97667.91
2022-07-29T18:18:40.598Z,97668.41
2022-07-29T18:21:08.310Z,97670.34
2022-07-29T18:23:36.001Z,97672.53
2022-07-29T18:26:04.172Z,97667.06
2022-07-29T18:28:33.293Z,97667.66
2022-07-29T18:31:02.267Z,97669.03
2022-07-29T18:33:30.230Z,97669.31
2022-07-29T18:36:11.177Z,97667.38
2022-07-29T18:38:39.656Z,97672.03
2022-07-29T18:41:07.248Z,97681.34
2022-07-29T18:43:36.428Z,97687.09
2022-07-29T18:46:05.830Z,97690.44
2022-07-29T18:48:33.958Z,97695.59
2022-07-29T18:51:02.627Z,97703.03
2022-07-29T18:53:37.315Z,97707.94
2022-07-29T18:56:05.593Z,97703.91
2022-07-29T18:58:33.997Z,97707.94
2022-07-29T19:01:02.939Z,97711.50
2022-07-29T19:03:30.695Z,97721.34
2022-07-29T19:05:58.285Z,97718.34
2022-07-29T19:08:25.964Z,97717.88
2022-07-29T19:10:54.162Z,97716.25
2022-07-29T19:13:21.937Z,97716.47
2022-07-29T19:15:49.576Z,97725.78
2022-07-29T19:18:18.672Z,97725.00
2022-07-29T19:20:46.322Z,97730.69
2022-07-29T19:23:14.109Z,97740.28
2022-07-29T19:25:53.386Z,97738.38
2022-07-29T19:28:21.511Z,97748.25
2022-07-29T19:30:49.134Z,97746.03
2022-07-29T19:33:19.112Z,97752.66
2022-07-29T19:35:49.308Z,97757.00
2022-07-29T19:38:19.401Z,97765.47
2022-07-29T19:40:47.570Z,97759.47
2022-07-29T19:43:50.452Z,97769.84
2022-07-29T19:46:02.936Z,97767.94
2022-07-29T19:48:32.053Z,97780.25
2022-07-29T19:50:59.627Z,97786.00
2022-07-29T19:53:27.303Z,97790.09
2022-07-29T19:55:54.854Z,97794.75
2022-07-29T19:58:22.689Z,97794.44
2022-07-29T20:00:54.632Z,97788.47
2022-07-29T20:03:22.342Z,97798.06
2022-07-29T20:05:52.784Z,97799.13
2022-07-29T20:08:20.522Z,97804.56
2022-07-29T20:10:48.076Z,97792.81
2022-07-29T20:13:15.960Z,97795.28
2022-07-29T20:15:43.680Z,97795.56
2022-07-29T20:18:11.288Z,97802.13
2022-07-29T20:20:38.927Z,97785.91
2022-07-29T20:23:08.045Z,97786.75
2022-07-29T20:25:35.606Z,97781.59
2022-07-29T20:28:03.270Z,97780.78
2022-07-29T20:30:30.957Z,97781.34
2022-07-29T20:33:00.744Z,97774.50
2022-07-29T20:35:28.481Z,97778.59
2022-07-29T20:37:56.731Z,97776.72
2022-07-29T20:40:26.499Z,97778.09
2022-07-29T20:42:54.199Z,97778.94
2022-07-29T20:45:21.923Z,97779.75
2022-07-29T20:47:50.709Z,97780.28
2022-07-29T20:50:18.946Z,97782.75
2022-07-29T20:52:46.512Z,97789.03
2022-07-29T20:55:14.334Z,97789.03
2022-07-29T20:57:43.373Z,97778.38
2022-07-29T21:00:12.014Z,97776.19
2022-07-29T21:02:39.929Z,97773.97
2022-07-29T21:05:07.829Z,97767.09
2022-07-29T21:07:35.585Z,97767.66
2022-07-29T21:10:03.192Z,97768.47
2022-07-29T21:12:30.942Z,97776.13
2022-07-29T21:15:00.132Z,97771.50
2022-07-29T21:17:27.720Z,97771.22
2022-07-29T21:19:55.379Z,97775.88
2022-07-29T21:22:23.093Z,97770.69
2022-07-29T21:24:50.890Z,97776.69
2022-07-29T21:27:38.217Z,97772.03
2022-07-29T21:30:09.521Z,97766.84
2022-07-29T21:32:37.287Z,97761.38
2022-07-29T21:35:18.282Z,97752.06
2022-07-29T21:37:53.082Z,97754.53
2022-07-29T21:40:20.772Z,97759.19
2022-07-29T21:42:48.438Z,97757.56
2022-07-29T21:45:18.798Z,97755.09
2022-07-29T21:47:46.394Z,97757.00
2022-07-29T21:50:13.962Z,97756.72
2022-07-29T21:52:41.604Z,97750.69
2022-07-29T21:55:10.697Z,97749.63
2022-07-29T21:57:39.285Z,97751.53
2022-07-29T22:00:11.084Z,97754.25
2022-07-29T22:02:40.255Z,97758.09
2022-07-29T22:05:08.289Z,97752.63
2022-07-29T22:07:54.653Z,97753.16
2022-07-29T22:10:24.204Z,97746.06
2022-07-29T22:12:52.508Z,97739.78
2022-07-29T22:15:20.609Z,97737.31
2022-07-29T22:17:50.214Z,97743.59
2022-07-29T22:20:17.953Z,97743.59
2022-07-29T22:22:45.653Z,97741.03
2022-07-29T22:25:13.271Z,97744.78
2022-07-29T22:27:41.079Z,97738.66
2022-07-29T22:30:09.453Z,97739.50
2022-07-29T22:32:37.102Z,97737.31
2022-07-29T22:35:06.691Z,97734.81
2022-07-29T22:37:34.760Z,97740.31
2022-07-29T22:40:02.539Z,97736.19
2022-07-29T22:42:30.370Z,97734.84
2022-07-29T22:44:58.049Z,97735.91
2022-07-29T22:47:45.742Z,97736.88
2022-07-29T22:50:14.742Z,97734.00
2022-07-29T22:52:42.362Z,97729.09
2022-07-29T22:55:10.494Z,97730.47
2022-07-29T22:57:38.055Z,97728.28
2022-07-29T23:00:07.220Z,97726.63
2022-07-29T23:02:36.193Z,97716.50
2022-07-29T23:05:03.923Z,97719.50
2022-07-29T23:07:32.896Z,97720.88
2022-07-29T23:10:00.594Z,97716.75
2022-07-29T23:12:28.146Z,97719.50
2022-07-29T23:14:55.784Z,97714.31
2022-07-29T23:17:23.431Z,97710.75
2022-07-29T23:19:51.214Z,97708.84
2022-07-29T23:22:18.753Z,97712.13
2022-07-29T23:24:47.694Z,97722.75
2022-07-29T23:27:15.268Z,97728.47
2022-07-29T23:29:42.987Z,97726.53
2022-07-29T23:32:10.578Z,97726.28
2022-07-29T23:34:38.305Z,97727.63
2022-07-29T23:37:06.691Z,97723.53
2022-07-29T23:39:34.327Z,97717.81
2022-07-29T23:42:03.303Z,97718.59
2022-07-29T23:44:30.937Z,97721.31
2022-07-29T23:46:58.805Z,97722.97
2022-07-29T23:49:26.871Z,97719.66
2022-07-29T23:51:54.501Z,97728.13
2022-07-29T23:54:22.229Z,97720.47
2022-07-29T23:56:49.810Z,97723.19
2022-07-29T23:59:18.831Z,97720.19
